createdAt,value
2022-10-02T00:02:20.427Z,11.87
2022-10-02T00:05:18.770Z,11.84
2022-10-02T00:08:24.296Z,11.91
2022-10-02T00:10:59.438Z,11.87
2022-10-02T00:13:37.433Z,11.92
2022-10-02T00:16:07.614Z,11.93
2022-10-02T00:18:37.184Z,11.95
2022-10-02T00:21:37.199Z,11.99
2022-10-02T00:24:07.823Z,12.04
2022-10-02T00:26:51.030Z,12.03
2022-10-02T00:29:51.787Z,12.03
2022-10-02T00:32:45.355Z,12.04
2022-10-02T00:35:50.553Z,12.08
2022-10-02T00:38:43.229Z,12.03
2022-10-02T00:41:52.679Z,12.09
2022-10-02T00:44:51.427Z,12.11
2022-10-02T00:48:04.064Z,12.15
2022-10-02T00:50:33.665Z,12.13
2022-10-02T00:53:28.891Z,12.11
2022-10-02T00:56:42.064Z,12.02
2022-10-02T00:59:36.522Z,11.96
2022-10-02T01:02:12.022Z,11.93
2022-10-02T01:04:40.183Z,11.80
2022-10-02T01:07:10.551Z,11.80
2022-10-02T01:09:39.096Z,11.83
2022-10-02T01:12:05.679Z,11.80
2022-10-02T01:14:37.182Z,11.77
2022-10-02T01:17:07.317Z,11.67
2022-10-02T01:19:39.230Z,11.47
2022-10-02T01:22:19.316Z,11.35
2022-10-02T01:25:05.827Z,11.21
2022-10-02T01:27:36.642Z,11.24
2022-10-02T01:30:14.323Z,11.30
2022-10-02T01:32:55.206Z,11.23
2022-10-02T01:35:26.121Z,11.09
2022-10-02T01:37:54.974Z,11.03
2022-10-02T01:40:35.990Z,10.99
2022-10-02T01:43:12.592Z,10.97
2022-10-02T01:45:53.910Z,10.87
2022-10-02T01:48:34.734Z,10.84
2022-10-02T01:51:33.555Z,10.80
2022-10-02T01:54:13.022Z,10.73
2022-10-02T01:57:35.038Z,10.67
2022-10-02T02:00:16.111Z,10.61
2022-10-02T02:29:00.151Z,10.60
2022-10-02T02:31:33.801Z,10.62
2022-10-02T02:34:08.483Z,10.61
2022-10-02T02:36:43.364Z,10.66
2022-10-02T02:39:18.354Z,10.66
2022-10-02T02:41:53.224Z,10.75
2022-10-02T02:44:36.482Z,10.77
2022-10-02T02:47:22.557Z,10.91
2022-10-02T02:50:16.375Z,10.99
2022-10-02T02:52:52.369Z,10.97
2022-10-02T02:55:27.191Z,10.99
2022-10-02T02:58:09.070Z,11.05
2022-10-02T03:00:35.783Z,11.11
2022-10-02T03:03:02.467Z,11.16
2022-10-02T03:05:29.819Z,11.20
2022-10-02T03:08:01.486Z,11.18
2022-10-02T03:11:07.543Z,11.23
2022-10-02T03:13:54.107Z,11.25
2022-10-02T03:16:57.693Z,11.26
2022-10-02T03:20:28.686Z,11.38
2022-10-02T03:23:36.467Z,11.31
2022-10-02T03:26:17.146Z,11.28
2022-10-02T03:28:57.039Z,11.26
2022-10-02T03:31:28.317Z,11.26
2022-10-02T03:33:58.018Z,11.33
2022-10-02T03:36:25.368Z,11.34
2022-10-02T03:39:19.717Z,11.30
2022-10-02T03:41:43.233Z,11.33
2022-10-02T03:44:10.024Z,11.27
2022-10-02T03:46:36.796Z,11.05
2022-10-02T03:49:03.530Z,10.99
2022-10-02T03:51:30.663Z,11.04
2022-10-02T03:53:57.493Z,11.05
2022-10-02T03:56:55.330Z,11.16
2022-10-02T03:59:47.024Z,11.21
2022-10-02T04:02:42.119Z,11.32
2022-10-02T04:05:26.410Z,11.35
2022-10-02T04:08:00.501Z,11.39
2022-10-02T04:11:12.143Z,11.42
2022-10-02T04:13:47.164Z,11.42
2022-10-02T04:16:40.008Z,11.43
2022-10-02T04:19:47.539Z,11.41
2022-10-02T04:22:43.316Z,11.42
2022-10-02T04:25:26.468Z,11.46
2022-10-02T04:27:59.077Z,11.53
2022-10-02T04:30:25.971Z,11.51
2022-10-02T04:32:53.752Z,11.54
2022-10-02T04:35:33.061Z,11.53
2022-10-02T04:42:18.514Z,11.53
2022-10-02T04:45:05.539Z,11.54
2022-10-02T04:48:20.263Z,11.60
2022-10-02T04:51:36.339Z,11.66
2022-10-02T04:54:16.723Z,11.71
2022-10-02T04:57:20.855Z,11.69
2022-10-02T05:00:09.950Z,11.71
2022-10-02T05:03:11.733Z,11.74
2022-10-02T05:06:15.224Z,11.75
2022-10-02T05:09:06.640Z,11.77
2022-10-02T05:11:58.151Z,11.80
2022-10-02T05:15:04.823Z,11.80
2022-10-02T05:17:45.890Z,11.79
2022-10-02T05:20:41.578Z,11.79
2022-10-02T05:23:40.229Z,11.80
2022-10-02T05:27:08.226Z,11.79
2022-10-02T05:36:14.140Z,11.88
2022-10-02T05:41:48.647Z,11.91
2022-10-02T05:44:25.737Z,11.89
2022-10-02T05:47:10.474Z,11.86
2022-10-02T05:49:47.120Z,11.88
2022-10-02T05:52:42.926Z,11.91
2022-10-02T05:55:22.867Z,11.95
2022-10-02T05:57:56.132Z,11.95
2022-10-02T06:00:43.744Z,11.93
2022-10-02T06:03:23.114Z,11.97
2022-10-02T06:06:24.217Z,11.92
2022-10-02T06:08:58.977Z,11.95
2022-10-02T06:11:43.082Z,11.95
2022-10-02T06:14:36.629Z,11.96
2022-10-02T06:17:16.045Z,11.98
2022-10-02T06:20:12.484Z,12.01
2022-10-02T06:22:47.689Z,12.03
2022-10-02T06:25:21.805Z,12.12
2022-10-02T06:28:01.138Z,12.16
2022-10-02T06:30:31.999Z,12.20
2022-10-02T06:33:21.470Z,12.22
2022-10-02T06:36:13.925Z,12.18
2022-10-02T06:38:58.977Z,12.03
2022-10-02T06:42:10.862Z,12.04
2022-10-02T06:45:03.823Z,12.09
2022-10-02T06:48:14.755Z,12.00
2022-10-02T07:48:30.366Z,12.61
2022-10-02T07:58:08.745Z,12.85
2022-10-02T08:00:59.598Z,12.85
2022-10-02T08:03:32.357Z,12.88
2022-10-02T08:06:00.700Z,12.88
2022-10-02T08:08:55.579Z,12.87
2022-10-02T08:11:49.776Z,12.84
2022-10-02T08:14:26.933Z,12.88
2022-10-02T08:16:57.351Z,12.86
2022-10-02T08:19:39.533Z,12.85
2022-10-02T08:22:45.046Z,12.81
2022-10-02T08:25:25.819Z,12.85
2022-10-02T08:28:04.947Z,12.80
2022-10-02T08:30:31.735Z,12.91
2022-10-02T08:32:58.718Z,12.86
2022-10-02T08:35:41.537Z,12.87
2022-10-02T08:38:37.227Z,12.87
2022-10-02T08:41:51.806Z,12.83
2022-10-02T08:45:03.832Z,12.73
2022-10-02T08:48:09.041Z,12.71
2022-10-02T08:51:27.551Z,12.64
2022-10-02T08:54:47.348Z,12.59
2022-10-02T08:57:30.908Z,12.58
2022-10-02T09:00:44.242Z,12.47
2022-10-02T09:04:00.400Z,12.44
2022-10-02T09:07:07.063Z,12.43
2022-10-02T09:10:00.468Z,12.50
2022-10-02T09:16:30.083Z,12.34
2022-10-02T09:19:01.656Z,12.36
2022-10-02T09:21:46.861Z,12.28
2022-10-02T09:31:31.929Z,12.03
2022-10-02T09:37:50.439Z,11.95
2022-10-02T09:40:32.528Z,11.98
2022-10-02T09:43:12.639Z,11.92
2022-10-02T09:46:14.655Z,11.82
2022-10-02T09:49:34.847Z,11.74
2022-10-02T09:52:43.034Z,11.81
2022-10-02T09:55:36.556Z,11.85
2022-10-02T09:58:57.149Z,11.82
2022-10-02T10:02:12.942Z,11.90
2022-10-02T10:05:18.413Z,11.95
2022-10-02T10:23:07.371Z,12.40
2022-10-02T10:26:16.340Z,12.41
2022-10-02T10:29:22.695Z,12.49
2022-10-02T10:32:35.402Z,12.61
2022-10-02T10:35:40.938Z,12.54
2022-10-02T10:38:54.696Z,12.60
2022-10-02T10:42:01.253Z,12.74
2022-10-02T10:45:08.431Z,12.85
2022-10-02T10:48:15.688Z,12.81
2022-10-02T10:51:23.489Z,12.83
2022-10-02T10:54:21.455Z,12.97
2022-10-02T11:09:44.812Z,12.99
2022-10-02T11:15:54.798Z,13.08
2022-10-02T11:19:08.847Z,13.14
2022-10-02T11:22:16.471Z,13.21
2022-10-02T11:25:29.632Z,13.31
2022-10-02T11:28:06.144Z,13.36
2022-10-02T11:31:12.102Z,13.50
2022-10-02T12:20:32.109Z,13.44
2022-10-02T12:23:54.346Z,13.45
2022-10-02T12:26:59.598Z,13.43
2022-10-02T12:29:48.380Z,13.43
2022-10-02T12:33:16.335Z,13.49
2022-10-02T12:36:18.121Z,13.57
2022-10-02T12:39:26.418Z,13.65
2022-10-02T12:42:22.360Z,13.70
2022-10-02T12:45:44.347Z,13.64
2022-10-02T12:48:26.539Z,13.58
2022-10-02T12:51:35.562Z,13.58
2022-10-02T12:54:57.724Z,13.51
2022-10-02T12:58:03.314Z,13.44
2022-10-02T13:01:30.831Z,13.45
2022-10-02T13:05:02.187Z,13.34
2022-10-02T13:08:16.111Z,13.37
2022-10-02T13:10:50.011Z,13.37
2022-10-02T13:13:52.371Z,13.33
2022-10-02T13:16:45.138Z,13.32
2022-10-02T13:19:19.863Z,13.36
2022-10-02T13:21:59.001Z,13.43
2022-10-02T13:25:12.240Z,13.47
2022-10-02T13:27:49.838Z,13.58
2022-10-02T13:30:21.486Z,13.63
2022-10-02T13:33:14.270Z,13.72
2022-10-02T13:39:00.628Z,13.77
2022-10-02T13:41:41.259Z,13.72
2022-10-02T13:44:14.981Z,13.59
2022-10-02T13:46:51.448Z,13.58
2022-10-02T13:50:01.986Z,13.46
2022-10-02T13:52:52.223Z,13.38
2022-10-02T13:55:53.853Z,13.25
2022-10-02T13:58:54.223Z,13.26
2022-10-02T14:04:57.984Z,13.21
2022-10-02T14:07:45.631Z,13.10
2022-10-02T14:10:41.511Z,13.13
2022-10-02T14:14:03.174Z,13.17
2022-10-02T14:17:00.521Z,13.04
2022-10-02T14:20:02.845Z,13.04
2022-10-02T14:23:01.832Z,12.96
2022-10-02T14:25:51.641Z,12.88
2022-10-02T14:29:07.692Z,12.84
2022-10-02T14:31:49.449Z,12.86
2022-10-02T14:34:49.787Z,12.97
2022-10-02T14:37:51.579Z,12.95
2022-10-02T14:40:19.708Z,12.90
2022-10-02T14:43:29.229Z,12.91
2022-10-02T14:46:19.957Z,12.88
2022-10-02T14:49:25.557Z,12.92
2022-10-02T14:52:10.116Z,12.98
2022-10-02T14:59:02.940Z,12.97
2022-10-02T15:01:31.430Z,12.98
2022-10-02T15:04:47.726Z,12.97
2022-10-02T15:07:18.259Z,12.88
2022-10-02T15:10:21.694Z,12.81
2022-10-02T15:13:01.012Z,12.73
2022-10-02T15:15:45.234Z,12.70
2022-10-02T15:18:39.454Z,12.65
2022-10-02T15:21:19.495Z,12.66
2022-10-02T15:23:50.484Z,12.66
2022-10-02T15:26:31.887Z,12.64
2022-10-02T15:29:33.940Z,12.62
2022-10-02T15:32:22.165Z,12.63
2022-10-02T15:35:29.683Z,12.60
2022-10-02T15:38:37.316Z,12.47
2022-10-02T15:42:09.247Z,12.50
2022-10-02T15:45:34.537Z,12.46
2022-10-02T15:48:49.009Z,12.42
2022-10-02T15:51:45.944Z,12.40
2022-10-02T15:54:38.519Z,12.35
2022-10-02T16:18:15.007Z,12.09
2022-10-02T16:30:16.577Z,12.04
2022-10-02T16:36:49.040Z,11.93
2022-10-02T16:39:47.116Z,11.96
2022-10-02T16:42:49.370Z,12.03
2022-10-02T16:45:45.300Z,11.99
2022-10-02T16:48:19.601Z,11.98
2022-10-02T16:51:12.658Z,12.04
2022-10-02T16:53:56.044Z,12.08
2022-10-02T16:56:40.854Z,12.12
2022-10-02T16:59:47.336Z,12.17
2022-10-02T17:02:33.219Z,12.09
2022-10-02T17:05:28.741Z,12.09
2022-10-02T17:08:56.892Z,12.07
2022-10-02T17:11:31.851Z,12.06
2022-10-02T17:14:20.166Z,12.05
2022-10-02T17:16:59.622Z,12.03
2022-10-02T17:19:45.811Z,12.00
2022-10-02T17:50:45.578Z,12.00
2022-10-02T17:56:55.426Z,11.94
2022-10-02T18:00:08.811Z,11.94
2022-10-02T18:03:10.322Z,11.94
2022-10-02T18:15:27.193Z,11.89
2022-10-02T18:18:39.498Z,11.82
2022-10-02T18:21:44.828Z,11.91
2022-10-02T18:24:45.145Z,11.90
2022-10-02T18:27:44.386Z,11.92
2022-10-02T18:30:15.006Z,11.93
2022-10-02T18:33:25.461Z,11.92
2022-10-02T18:36:22.992Z,11.91
2022-10-02T18:39:20.538Z,11.92
2022-10-02T18:42:17.737Z,11.82
2022-10-02T18:45:36.601Z,11.80
2022-10-02T18:49:08.937Z,11.87
2022-10-02T18:51:56.095Z,11.92
2022-10-02T18:54:33.085Z,11.86
2022-10-02T18:57:41.049Z,11.82
2022-10-02T19:00:22.820Z,11.72
2022-10-02T19:03:21.441Z,11.69
2022-10-02T19:12:22.136Z,11.69
2022-10-02T19:14:55.779Z,11.63
2022-10-02T19:17:26.102Z,11.56
2022-10-02T19:19:54.061Z,11.57
2022-10-02T19:22:24.443Z,11.55
2022-10-02T19:24:57.279Z,11.60
2022-10-02T19:27:34.558Z,11.59
2022-10-02T19:30:04.614Z,11.62
2022-10-02T19:32:36.643Z,11.68
2022-10-02T19:35:18.383Z,11.62
2022-10-02T19:37:48.832Z,11.65
2022-10-02T19:40:24.854Z,11.70
2022-10-02T19:43:01.998Z,11.74
2022-10-02T19:45:32.772Z,11.69
2022-10-02T19:48:06.853Z,11.66
2022-10-02T19:50:51.157Z,11.65
2022-10-02T19:53:53.361Z,11.56
2022-10-02T19:56:39.821Z,11.59
2022-10-02T19:59:12.611Z,11.54
2022-10-02T20:01:57.986Z,11.51
2022-10-02T20:04:28.593Z,11.51
2022-10-02T20:07:00.008Z,11.53
2022-10-02T20:09:46.976Z,11.57
2022-10-02T20:12:29.401Z,11.59
2022-10-02T20:15:06.306Z,11.57
2022-10-02T20:17:37.336Z,11.62
2022-10-02T20:20:11.775Z,11.56
2022-10-02T20:22:59.838Z,11.52
2022-10-02T20:25:42.847Z,11.56
2022-10-02T20:28:56.173Z,11.61
2022-10-02T20:31:43.436Z,11.66
2022-10-02T20:34:43.819Z,11.63
2022-10-02T20:37:18.808Z,11.64
2022-10-02T20:40:02.339Z,11.74
2022-10-02T20:42:35.768Z,11.72
2022-10-02T20:45:02.720Z,11.71
2022-10-02T20:48:00.138Z,11.69
2022-10-02T20:50:48.857Z,11.66
2022-10-02T20:54:03.274Z,11.66
2022-10-02T20:57:19.715Z,11.73
2022-10-02T21:00:15.873Z,11.73
2022-10-02T21:03:24.283Z,11.74
2022-10-02T21:06:40.540Z,11.79
2022-10-02T21:09:53.795Z,11.82
2022-10-02T21:13:01.081Z,11.75
2022-10-02T21:16:10.932Z,11.76
2022-10-02T21:19:16.742Z,11.73
2022-10-02T21:22:12.193Z,11.70
2022-10-02T21:25:18.243Z,11.65
2022-10-02T21:28:23.471Z,11.65
2022-10-02T21:54:38.059Z,11.31
2022-10-02T21:57:41.870Z,11.21
2022-10-02T22:00:22.331Z,11.20
2022-10-02T22:03:18.366Z,11.13
2022-10-02T22:06:05.349Z,11.08
2022-10-02T22:09:07.546Z,11.11
2022-10-02T22:12:12.674Z,11.09
2022-10-02T22:14:46.244Z,11.10
2022-10-02T22:17:53.988Z,11.13
2022-10-02T22:21:03.136Z,11.16
2022-10-02T22:23:45.763Z,11.20
2022-10-02T22:26:31.132Z,11.19
2022-10-02T22:29:14.443Z,11.15
2022-10-02T22:32:41.649Z,11.17
2022-10-02T22:35:27.409Z,11.19
2022-10-02T22:38:34.821Z,11.15
2022-10-02T22:41:38.522Z,11.18
2022-10-02T22:44:26.529Z,11.18
2022-10-02T22:47:01.851Z,11.21
2022-10-02T22:49:37.177Z,11.20
2022-10-02T22:52:33.586Z,11.17
2022-10-02T22:55:49.578Z,11.16
2022-10-02T23:01:48.381Z,11.19
2022-10-02T23:04:30.396Z,11.19
2022-10-02T23:07:20.683Z,11.19
2022-10-02T23:09:57.779Z,11.15
2022-10-02T23:12:54.822Z,11.17
2022-10-02T23:15:35.870Z,11.15
2022-10-02T23:18:13.421Z,11.17
2022-10-02T23:20:46.854Z,11.15
2022-10-02T23:23:37.670Z,11.21
2022-10-02T23:26:19.819Z,11.20
2022-10-02T23:29:23.438Z,11.28
2022-10-02T23:32:20.337Z,11.32
2022-10-02T23:35:34.807Z,11.39
2022-10-02T23:38:04.063Z,11.35
2022-10-02T23:41:15.302Z,11.39
2022-10-02T23:43:59.639Z,11.35
2022-10-02T23:46:33.758Z,11.37
2022-10-02T23:49:02.291Z,11.33
2022-10-02T23:52:01.829Z,11.37
2022-10-02T23:54:54.250Z,11.44
2022-10-02T23:57:29.810Z,11.50
